Gulf, NC (27256)

1:00 PM EST on December 25, 2014 (GMT -0500)
Gress Weather Station | Change Station
CLOSE
Current Station
Personal Weather Station
Location: Sanford, NC
Elevation: 348 ft
Nearby Weather Stations

Elev 348 ft 35.50 °N, 79.29 °W | Updated 9 minutes ago

Clear
Clear
58.5 °F
Feels Like 58.5 °F
N
5.8
Wind Variable Wind from ESE

Today
High -- | Low -- °F
--% Chance of Precip.
Yesterday
High -- | Low -- °F
Precip. -- in
7:24 AM 5:10 PM
Waxing Crescent, 18% visible
Pressure 30.06 in
Visibility 10.0 miles
Clouds Clear
Dew Point 39 °F
Humidity 48%
Rainfall 0.03 in
Snow Depth Not available.
UV 3 out of 12
Pollen .30 out of 12
Air Quality Not available.
Flu Activity Not available.
METAR KTTA 251755Z AUTO 29009G15KT 260V320 10SM CLR 14/02 A3006 RMK AO2 T01390019 10139 20110

More Conditions Fewer Conditions

Pressure 30.06 in
Visibility 10.0 miles
Clouds Clear
Dew Point 39 °F
Humidity 48%
Rainfall 0.03 in
Snow Depth Not available.
UV 3 out of 12
Pollen .30 out of 12
Air Quality Not available.
Flu Activity Not available.
METAR KTTA 251755Z AUTO 29009G15KT 260V320 10SM CLR 14/02 A3006 RMK AO2 T01390019 10139 20110

More Conditions Fewer Conditions

10-Day Weather Forecast

Almanac

Astronomy

Dec. 25, 2014 Rise Set
Actual Time
Civil Twilight
Nautical Twilight
Astronomical Twilight
Moon
Length of Visible Light
Length of Day
Tomorrow will be .
, % of the Moon is Illuminated

Today's Extremes

State Highs State Lows

Community

WunderPhotos

Upload Photos

1,780,351 photos uploaded!

WunderBlogs® & News

Nearby

Air Quality

  Air Quality AQ Index Pollutant
Not available.

Snow Depth

Station Depth Elevation

Earthquake Activity

City Distance Mag. Time & Date
Minimum magnitude displayed is 2.5.

Coastal Water Temperatures

Place Temperature

Nearby Weather Stations